3IS7 weather

Foote Airport
Wenona, Illinois, United States

Public forecast

Using degrees Fahrenheit for public forecast. Weather courtesy of forecast.io.

METAR (pilot weather report)

Closest report is Marshall County Airport, 13.8 nm (25.5 km) WSW. Retrieved 2019/08/21 02:35 UTC (2 minutes ago):

KC75 210235Z AUTO 00000KT 10SM CLR 21/20 A2998 RMK AO2 T02100202

TAF (pilot weather forecast)

Forecast is more than 12 hours old.

Closest forecast is General Wayne A. Downing Peoria International Airport, 37.1 nm (68.8 km) SW. Retrieved 2019/08/20 00:33 UTC (1 day ago):

TAF KPIA 202329Z 2100/2124 VRB05KT P6SM SCT150 BKN250 TEMPO 2109/2112 4SM BR FM211200 30007KT P6SM BKN020 FM211700 31011KT P6SM VCSH BKN035 BKN180